Time;durP1;ratioP1;P1;durP2;ratioP2;P2;SDS_P1;SDS_P2;PMS_P1;PMS_P2;Temp;Humidity;BMP_temperature;BMP_pressure;BME280_temperature;BME280_humidity;BME280_pressure;Samples;Min_cycle;Max_cycle;Signal;HPM_P1;HPM_P2
2021/04/30 00:01:37;;;;;;;10.10;7.73;;;5.10;99.90;;;;;;5020714;28;20180;-64
2021/04/30 00:04:03;;;;;;;12.13;8.17;;;5.10;99.90;;;;;;5011469;28;20176;-64
2021/04/30 00:06:28;;;;;;;12.13;7.87;;;5.10;99.90;;;;;;5020123;28;20226;-65
2021/04/30 00:08:54;;;;;;;14.23;8.53;;;5.10;99.90;;;;;;5030225;28;20191;-65
2021/04/30 00:11:20;;;;;;;9.30;8.27;;;5.10;99.90;;;;;;5024268;28;20662;-65
2021/04/30 00:13:45;;;;;;;12.30;9.20;;;5.10;99.90;;;;;;5011652;28;20176;-64
2021/04/30 00:16:11;;;;;;;10.53;7.37;;;5.20;99.90;;;;;;5018833;28;20211;-65
2021/04/30 00:18:37;;;;;;;15.63;7.33;;;5.30;99.90;;;;;;5035236;28;20250;-64
2021/04/30 00:21:04;;;;;;;7.93;7.13;;;5.40;99.90;;;;;;5031335;28;20179;-64
2021/04/30 00:23:32;;;;;;;19.33;7.57;;;5.40;99.90;;;;;;5015450;28;20557;-64
2021/04/30 00:25:59;;;;;;;13.67;7.47;;;5.50;99.90;;;;;;5016818;28;20196;-64
2021/04/30 00:28:25;;;;;;;12.03;7.13;;;5.50;99.90;;;;;;5035240;28;20195;-64
2021/04/30 00:30:54;;;;;;;8.83;7.93;;;5.60;99.90;;;;;;5033885;28;20633;-64
2021/04/30 00:33:21;;;;;;;11.10;8.97;;;5.70;99.90;;;;;;5015208;28;20168;-64
2021/04/30 00:35:47;;;;;;;16.57;8.10;;;5.80;99.90;;;;;;5014936;28;20204;-64
2021/04/30 00:38:13;;;;;;;10.37;6.73;;;5.80;99.90;;;;;;5030629;28;20856;-64
2021/04/30 00:40:39;;;;;;;9.30;6.97;;;5.90;99.90;;;;;;5014775;28;20215;-64
2021/04/30 00:43:05;;;;;;;8.00;6.60;;;5.90;99.90;;;;;;5032063;28;20180;-64
2021/04/30 00:45:31;;;;;;;13.43;7.63;;;5.70;99.90;;;;;;5022346;28;20172;-64
2021/04/30 00:47:56;;;;;;;10.47;7.37;;;5.90;99.90;;;;;;5014820;28;20704;-64
2021/04/30 00:50:24;;;;;;;10.93;7.00;;;6.00;99.90;;;;;;5024631;28;20603;-64
2021/04/30 00:52:51;;;;;;;12.10;8.10;;;5.90;99.90;;;;;;5019561;28;20176;-65
2021/04/30 00:55:18;;;;;;;10.23;7.13;;;6.50;99.90;;;;;;5023442;28;20171;-65
2021/04/30 00:57:56;;;;;;;11.93;7.57;;;5.90;99.90;;;;;;5034486;28;20175;-64
2021/04/30 01:00:24;;;;;;;7.50;6.20;;;5.90;99.90;;;;;;5031058;28;20648;-63
2021/04/30 01:02:50;;;;;;;9.83;8.17;;;6.00;99.90;;;;;;5034206;28;20200;-64
2021/04/30 01:05:17;;;;;;;10.37;8.50;;;5.80;99.90;;;;;;5026791;28;20203;-63
2021/04/30 01:07:43;;;;;;;9.63;8.00;;;5.90;99.90;;;;;;5014591;28;20218;-63
2021/04/30 01:10:09;;;;;;;10.27;6.87;;;5.90;99.90;;;;;;5019607;28;20215;-63
2021/04/30 01:12:35;;;;;;;11.40;8.73;;;5.90;99.90;;;;;;5034309;28;20180;-65
2021/04/30 01:15:02;;;;;;;12.27;8.03;;;5.90;99.90;;;;;;5029718;28;20223;-64
2021/04/30 01:17:28;;;;;;;13.10;7.80;;;5.90;99.90;;;;;;5014498;28;20675;-64
2021/04/30 01:19:55;;;;;;;13.80;7.60;;;5.90;99.90;;;;;;5016186;28;20190;-64
2021/04/30 01:22:35;;;;;;;13.97;9.13;;;5.90;99.90;;;;;;5034074;28;20183;-63
2021/04/30 01:25:02;;;;;;;12.63;8.87;;;5.90;99.90;;;;;;5031015;28;20183;-64
2021/04/30 01:27:28;;;;;;;10.37;8.70;;;5.80;99.90;;;;;;5013683;28;20583;-64
2021/04/30 01:29:53;;;;;;;10.23;8.77;;;5.80;99.90;;;;;;5014059;28;20204;-65
2021/04/30 01:32:19;;;;;;;13.20;9.67;;;5.80;99.90;;;;;;5014087;28;20176;-64
2021/04/30 01:34:45;;;;;;;16.70;10.80;;;5.90;99.90;;;;;;5015133;28;20187;-65
2021/04/30 01:37:11;;;;;;;11.90;8.50;;;5.90;99.90;;;;;;5013778;28;20211;-63
2021/04/30 01:39:36;;;;;;;17.97;10.27;;;5.90;99.90;;;;;;5026359;28;20240;-64
2021/04/30 01:42:05;;;;;;;14.10;9.47;;;5.90;99.90;;;;;;5033327;28;20179;-64
2021/04/30 01:44:31;;;;;;;12.97;10.03;;;5.80;99.90;;;;;;5022317;28;20183;-64
2021/04/30 01:46:59;;;;;;;10.87;9.70;;;5.90;99.90;;;;;;5028347;28;20575;-64
2021/04/30 01:49:25;;;;;;;16.40;11.57;;;5.90;99.90;;;;;;5023693;28;20204;-64
2021/04/30 01:51:51;;;;;;;18.93;9.97;;;5.90;99.90;;;;;;5013404;28;20265;-64
2021/04/30 01:54:17;;;;;;;18.10;10.90;;;5.90;99.90;;;;;;5021436;28;20180;-64
2021/04/30 01:56:42;;;;;;;16.17;10.57;;;5.90;99.90;;;;;;5033369;28;20191;-64
2021/04/30 01:59:08;;;;;;;21.20;11.63;;;5.90;99.90;;;;;;5027263;28;20645;-68
2021/04/30 02:01:34;;;;;;;14.10;11.70;;;6.00;99.90;;;;;;5014014;28;20180;-70
2021/04/30 02:04:00;;;;;;;17.50;10.83;;;6.00;99.90;;;;;;5015808;28;20179;-67
2021/04/30 02:06:26;;;;;;;17.00;11.57;;;6.10;99.90;;;;;;5014630;28;20192;-68
2021/04/30 02:08:54;;;;;;;16.97;11.63;;;6.00;99.90;;;;;;5016465;28;20204;-67
2021/04/30 02:11:20;;;;;;;16.53;11.80;;;6.00;99.90;;;;;;5033807;28;20210;-67
2021/04/30 02:13:46;;;;;;;12.43;11.23;;;6.00;99.90;;;;;;5032554;28;20167;-68
2021/04/30 02:16:11;;;;;;;13.27;11.87;;;6.00;99.90;;;;;;5014159;28;20556;-67
2021/04/30 02:18:37;;;;;;;16.27;10.37;;;6.00;99.90;;;;;;5014594;28;20391;-65
2021/04/30 02:21:03;;;;;;;20.13;12.07;;;6.00;99.90;;;;;;5032599;28;20583;-66
2021/04/30 02:23:28;;;;;;;15.73;12.33;;;6.00;99.90;;;;;;5033986;28;20222;-66
2021/04/30 02:25:54;;;;;;;14.63;11.10;;;6.00;99.90;;;;;;5016225;28;20242;-66
2021/04/30 02:28:20;;;;;;;16.33;11.80;;;6.00;99.90;;;;;;5013980;28;20183;-68
2021/04/30 02:30:46;;;;;;;16.13;11.73;;;6.00;99.90;;;;;;5028826;28;20673;-68
2021/04/30 02:33:12;;;;;;;19.73;11.53;;;6.00;99.90;;;;;;5033605;28;20184;-65
2021/04/30 02:35:42;;;;;;;17.90;11.90;;;6.00;99.90;;;;;;5019772;28;20686;-70
2021/04/30 02:38:11;;;;;;;17.03;12.50;;;6.00;99.90;;;;;;5012755;28;20176;-66
2021/04/30 02:40:38;;;;;;;13.03;11.13;;;6.00;99.90;;;;;;5026472;28;20183;-67
2021/04/30 02:43:07;;;;;;;18.40;12.70;;;6.00;99.90;;;;;;5016034;28;20170;-66
2021/04/30 02:45:33;;;;;;;14.30;11.73;;;6.00;99.90;;;;;;5021691;28;20196;-69
2021/04/30 02:47:59;;;;;;;17.90;12.70;;;6.00;99.90;;;;;;5013484;28;20239;-66
2021/04/30 02:50:28;;;;;;;17.97;13.40;;;6.00;99.90;;;;;;5023195;28;20214;-68
2021/04/30 02:52:54;;;;;;;16.27;11.83;;;6.10;99.90;;;;;;5032930;28;20181;-67
2021/04/30 02:55:22;;;;;;;18.07;12.87;;;6.00;99.90;;;;;;5023779;28;20642;-68
2021/04/30 02:57:56;;;;;;;19.40;11.43;;;6.10;99.90;;;;;;5026642;28;20179;-67
2021/04/30 03:00:23;;;;;;;16.60;12.77;;;6.00;99.90;;;;;;5023711;28;20267;-67
2021/04/30 03:02:49;;;;;;;14.50;11.00;;;6.00;99.90;;;;;;5013574;28;20544;-65
2021/04/30 03:05:15;;;;;;;14.43;12.73;;;5.90;99.90;;;;;;5020487;28;20188;-66
2021/04/30 03:07:42;;;;;;;17.07;13.57;;;6.00;99.90;;;;;;5033221;28;20172;-67
2021/04/30 03:10:08;;;;;;;19.53;14.30;;;6.00;99.90;;;;;;5026676;28;20222;-68
2021/04/30 03:12:34;;;;;;;21.57;13.60;;;6.00;99.90;;;;;;5013230;28;20168;-67
2021/04/30 03:15:00;;;;;;;18.17;14.20;;;6.00;99.90;;;;;;5016877;28;20199;-68
2021/04/30 03:17:26;;;;;;;21.80;14.43;;;6.00;99.90;;;;;;5032560;28;20199;-67
2021/04/30 03:19:52;;;;;;;20.70;14.67;;;6.00;99.90;;;;;;5029968;28;20195;-66
2021/04/30 03:22:17;;;;;;;21.90;15.03;;;6.10;99.90;;;;;;5013255;28;20207;-69
2021/04/30 03:24:43;;;;;;;16.20;13.37;;;6.10;99.90;;;;;;5013555;28;20234;-67
2021/04/30 03:27:09;;;;;;;21.27;15.07;;;6.00;99.90;;;;;;5032706;28;20558;-68
2021/04/30 03:29:34;;;;;;;23.73;14.93;;;6.00;99.90;;;;;;5014916;28;20226;-69
2021/04/30 03:32:00;;;;;;;30.53;15.73;;;6.00;99.90;;;;;;5013276;28;20723;-65
2021/04/30 03:34:26;;;;;;;24.30;14.43;;;6.00;99.90;;;;;;5013090;28;20661;-69
2021/04/30 03:36:51;;;;;;;19.97;13.83;;;6.00;99.90;;;;;;5029588;28;20285;-66
2021/04/30 03:39:17;;;;;;;24.47;15.30;;;6.00;99.90;;;;;;5032531;28;20584;-70
2021/04/30 03:41:43;;;;;;;17.47;12.93;;;6.10;99.90;;;;;;5016844;28;20191;-68
2021/04/30 03:44:08;;;;;;;16.93;14.10;;;6.00;99.90;;;;;;5012954;28;20176;-67
2021/04/30 03:46:34;;;;;;;20.27;14.83;;;6.00;99.90;;;;;;5025893;28;20227;-68
2021/04/30 03:49:00;;;;;;;16.27;14.23;;;6.10;99.90;;;;;;5032155;28;20195;-66
2021/04/30 03:51:25;;;;;;;18.07;14.00;;;6.10;99.90;;;;;;5020066;28;20242;-67
2021/04/30 03:53:51;;;;;;;16.00;14.17;;;6.00;99.90;;;;;;5012426;28;20171;-68
2021/04/30 03:56:17;;;;;;;19.00;14.43;;;6.10;99.90;;;;;;5022352;28;20562;-65
2021/04/30 03:58:42;;;;;;;20.20;15.53;;;6.10;99.90;;;;;;5016976;28;20184;-65
2021/04/30 04:01:08;;;;;;;23.40;14.87;;;6.10;99.90;;;;;;5019624;28;20494;-64
2021/04/30 04:03:34;;;;;;;20.83;13.53;;;6.10;99.90;;;;;;5031437;28;20175;-64
2021/04/30 04:06:00;;;;;;;21.43;14.07;;;6.10;99.90;;;;;;5024070;28;20665;-64
2021/04/30 04:08:27;;;;;;;25.33;15.60;;;6.10;99.90;;;;;;5011746;28;20306;-66
2021/04/30 04:10:53;;;;;;;20.67;15.73;;;6.10;99.90;;;;;;5016379;28;20178;-65
2021/04/30 04:13:24;;;;;;;27.33;16.20;;;6.20;99.90;;;;;;5031201;28;20164;-65
2021/04/30 04:15:50;;;;;;;20.07;13.77;;;6.20;99.90;;;;;;5026881;28;20196;-65
2021/04/30 04:18:17;;;;;;;21.33;14.43;;;6.20;99.90;;;;;;5011656;28;20702;-66
2021/04/30 04:20:43;;;;;;;21.40;14.90;;;6.30;99.90;;;;;;5013915;28;20302;-66
2021/04/30 04:23:09;;;;;;;20.43;14.53;;;6.20;99.90;;;;;;5031071;28;20168;-66
2021/04/30 04:25:35;;;;;;;20.83;15.50;;;6.30;99.90;;;;;;5029743;28;20330;-65
2021/04/30 04:28:01;;;;;;;25.77;16.80;;;6.30;99.90;;;;;;5011400;28;20215;-66
2021/04/30 04:30:27;;;;;;;22.27;15.23;;;6.40;99.90;;;;;;5011091;28;20204;-64
2021/04/30 04:32:53;;;;;;;22.83;15.07;;;6.30;99.90;;;;;;5030367;28;20175;-64
2021/04/30 04:35:19;;;;;;;28.23;16.37;;;6.10;99.90;;;;;;5030770;28;20672;-65
2021/04/30 04:37:45;;;;;;;17.27;14.73;;;6.30;99.90;;;;;;4995365;28;20210;-65
2021/04/30 04:40:12;;;;;;;21.63;15.83;;;6.30;99.90;;;;;;5011052;28;20188;-65
2021/04/30 04:42:39;;;;;;;23.80;15.73;;;6.30;99.90;;;;;;5012355;28;20184;-64
2021/04/30 04:45:06;;;;;;;27.10;17.50;;;6.30;99.90;;;;;;5011140;28;20240;-65
2021/04/30 04:47:31;;;;;;;22.13;15.20;;;6.30;99.90;;;;;;5025887;28;20674;-65
2021/04/30 04:49:57;;;;;;;17.90;15.20;;;6.40;99.90;;;;;;5030681;28;20257;-65
2021/04/30 04:52:22;;;;;;;20.17;15.73;;;6.50;99.90;;;;;;5017623;28;20230;-65
2021/04/30 04:54:48;;;;;;;19.67;14.40;;;6.50;99.90;;;;;;5011619;28;20200;-65
2021/04/30 04:57:14;;;;;;;19.13;15.40;;;6.50;99.90;;;;;;5022167;28;20200;-65
2021/04/30 04:59:40;;;;;;;21.07;15.60;;;6.50;99.90;;;;;;5014111;28;20188;-65
2021/04/30 05:02:06;;;;;;;26.03;17.07;;;6.50;99.90;;;;;;5022208;28;20539;-64
2021/04/30 05:04:31;;;;;;;21.00;16.57;;;6.50;99.90;;;;;;5034351;28;20176;-64
2021/04/30 05:06:57;;;;;;;21.90;15.70;;;6.60;99.90;;;;;;5030579;28;20688;-64
2021/04/30 05:09:23;;;;;;;18.90;15.03;;;6.60;99.90;;;;;;5033569;28;20206;-64
2021/04/30 05:11:49;;;;;;;18.13;14.67;;;6.50;99.90;;;;;;5028944;28;20168;-64
2021/04/30 05:14:15;;;;;;;22.87;15.77;;;6.50;99.90;;;;;;5015860;28;20200;-64
2021/04/30 05:16:41;;;;;;;23.30;15.40;;;6.50;99.90;;;;;;5020122;28;20215;-65
2021/04/30 05:19:06;;;;;;;19.90;14.70;;;6.60;99.90;;;;;;5034039;28;20553;-64
2021/04/30 05:21:32;;;;;;;22.57;15.73;;;6.60;99.90;;;;;;5030380;28;20235;-64
2021/04/30 05:23:59;;;;;;;22.30;15.60;;;6.70;99.90;;;;;;5014366;28;20263;-64
2021/04/30 05:26:28;;;;;;;20.17;16.33;;;6.60;99.90;;;;;;5015417;28;20188;-64
2021/04/30 05:28:56;;;;;;;19.60;14.57;;;6.60;99.90;;;;;;5033683;28;20202;-64
2021/04/30 05:31:22;;;;;;;24.87;16.17;;;6.70;99.90;;;;;;5032485;28;20172;-64
2021/04/30 05:33:48;;;;;;;17.07;14.60;;;6.70;99.90;;;;;;5013949;28;20164;-64
2021/04/30 05:36:13;;;;;;;23.50;15.93;;;6.70;99.90;;;;;;5013778;28;20231;-64
2021/04/30 05:38:39;;;;;;;20.90;16.47;;;6.80;99.90;;;;;;5086461;22;20278;-66
2021/04/30 05:41:04;;;;;;;23.70;18.40;;;6.90;99.90;;;;;;4993962;28;20173;-66
2021/04/30 05:43:30;;;;;;;22.17;14.83;;;6.90;99.90;;;;;;4977610;28;20181;-67
2021/04/30 05:45:56;;;;;;;21.83;15.33;;;7.00;99.90;;;;;;4974731;28;20173;-66
2021/04/30 05:48:21;;;;;;;24.50;16.70;;;7.00;99.90;;;;;;4995495;28;20223;-67
2021/04/30 05:50:47;;;;;;;18.83;15.60;;;7.00;99.90;;;;;;5013313;28;20255;-66
2021/04/30 05:53:12;;;;;;;23.87;17.83;;;7.10;99.90;;;;;;5000295;28;20210;-66
2021/04/30 05:55:38;;;;;;;22.90;17.20;;;7.00;99.90;;;;;;4994644;28;20704;-66
2021/04/30 05:58:03;;;;;;;27.03;19.03;;;7.00;99.90;;;;;;5005166;28;20199;-66
2021/04/30 06:00:29;;;;;;;23.40;16.87;;;7.10;99.90;;;;;;4997585;28;20398;-66
2021/04/30 06:02:54;;;;;;;21.00;16.17;;;7.10;99.90;;;;;;4998324;28;20215;-66
2021/04/30 06:05:20;;;;;;;20.30;15.17;;;7.10;99.90;;;;;;5007791;28;20191;-66
2021/04/30 06:07:46;;;;;;;22.37;16.30;;;7.10;99.90;;;;;;5012440;28;20196;-64
2021/04/30 06:10:12;;;;;;;26.40;17.43;;;7.00;99.90;;;;;;5009419;28;20201;-65
2021/04/30 06:12:38;;;;;;;25.83;16.47;;;7.10;99.90;;;;;;5012864;28;20212;-67
2021/04/30 06:15:04;;;;;;;24.40;16.30;;;7.10;99.90;;;;;;5012585;28;20273;-67
2021/04/30 06:17:30;;;;;;;26.80;17.20;;;7.10;99.90;;;;;;5011633;28;20247;-67
2021/04/30 06:19:56;;;;;;;25.90;14.50;;;7.10;99.90;;;;;;4973488;28;20284;-67
2021/04/30 06:22:21;;;;;;;23.97;15.37;;;7.20;99.90;;;;;;4996461;28;20184;-66
2021/04/30 06:24:47;;;;;;;22.77;16.27;;;7.10;99.90;;;;;;5012872;28;20220;-66
2021/04/30 06:27:14;;;;;;;18.77;15.87;;;7.10;99.90;;;;;;5003629;28;20659;-66
2021/04/30 06:29:40;;;;;;;23.13;17.80;;;7.10;99.90;;;;;;4994086;28;20731;-66
2021/04/30 06:32:06;;;;;;;24.40;17.83;;;7.10;99.90;;;;;;5001097;28;20278;-66
2021/04/30 06:34:32;;;;;;;24.87;17.90;;;7.20;99.90;;;;;;5013028;28;20630;-66
2021/04/30 06:36:57;;;;;;;21.70;15.67;;;7.20;99.90;;;;;;5006325;28;20208;-66
2021/04/30 06:39:23;;;;;;;19.93;15.63;;;7.20;99.90;;;;;;4991701;28;20271;-66
2021/04/30 06:41:51;;;;;;;24.67;17.50;;;7.30;99.90;;;;;;4997329;28;20763;-66
2021/04/30 06:44:16;;;;;;;31.13;18.03;;;7.40;99.90;;;;;;5012962;28;20238;-67
2021/04/30 06:46:42;;;;;;;22.63;16.60;;;7.50;99.90;;;;;;5011210;28;20173;-66
2021/04/30 06:49:08;;;;;;;18.80;15.60;;;7.60;99.90;;;;;;5012406;28;20607;-66
2021/04/30 06:51:34;;;;;;;20.90;16.07;;;7.60;99.90;;;;;;5010782;28;20646;-66
2021/04/30 06:54:01;;;;;;;22.40;16.03;;;7.70;99.90;;;;;;4992762;28;20196;-66
2021/04/30 06:56:28;;;;;;;29.10;16.60;;;7.70;99.90;;;;;;4992852;28;20238;-66
2021/04/30 06:58:54;;;;;;;23.03;16.60;;;7.70;99.90;;;;;;5008003;28;20538;-66
2021/04/30 07:01:20;;;;;;;20.10;16.07;;;7.80;99.90;;;;;;4992492;28;20184;-66
2021/04/30 07:03:46;;;;;;;23.70;15.07;;;7.80;99.90;;;;;;5008124;28;20183;-65
2021/04/30 07:06:14;;;;;;;20.40;15.60;;;7.60;99.90;;;;;;4992846;28;20252;-65
2021/04/30 07:08:39;;;;;;;22.00;16.87;;;7.60;99.90;;;;;;5008201;28;20686;-65
2021/04/30 07:11:06;;;;;;;26.40;17.17;;;7.60;99.90;;;;;;5011942;28;20211;-64
2021/04/30 07:13:34;;;;;;;25.37;17.63;;;7.60;99.90;;;;;;4996744;28;20267;-64
2021/04/30 07:16:00;;;;;;;23.33;15.37;;;7.70;99.90;;;;;;4992490;28;20168;-64
2021/04/30 07:18:26;;;;;;;24.67;17.07;;;7.80;99.90;;;;;;5006269;28;20204;-64
2021/04/30 07:20:51;;;;;;;24.17;16.03;;;7.90;99.90;;;;;;5011725;28;20165;-64
2021/04/30 07:23:17;;;;;;;23.87;16.80;;;7.90;99.90;;;;;;4999489;28;20548;-65
2021/04/30 07:25:43;;;;;;;24.33;17.67;;;7.90;99.90;;;;;;4991979;28;20252;-64
2021/04/30 07:28:08;;;;;;;24.00;16.47;;;8.00;99.90;;;;;;5002402;28;20196;-64
2021/04/30 07:30:34;;;;;;;22.33;17.63;;;8.00;99.90;;;;;;5011738;28;20274;-64
2021/04/30 07:32:59;;;;;;;24.77;16.63;;;8.10;99.90;;;;;;5003241;28;20661;-64
2021/04/30 07:35:25;;;;;;;23.53;16.77;;;8.20;99.90;;;;;;4992215;28;20161;-64
2021/04/30 07:37:50;;;;;;;25.10;17.53;;;8.10;99.90;;;;;;4997594;28;20293;-64
2021/04/30 07:40:16;;;;;;;25.07;16.87;;;8.10;99.90;;;;;;5011989;28;20288;-64
2021/04/30 07:42:43;;;;;;;25.67;16.70;;;8.20;99.90;;;;;;5006491;28;20187;-64
2021/04/30 07:45:09;;;;;;;21.50;16.83;;;8.20;99.90;;;;;;4992321;28;20308;-64
2021/04/30 07:47:35;;;;;;;24.33;16.57;;;8.20;99.90;;;;;;4995847;28;20207;-64
2021/04/30 07:50:01;;;;;;;25.93;16.93;;;8.30;99.90;;;;;;5011212;28;20239;-64
2021/04/30 07:52:26;;;;;;;26.77;18.53;;;8.40;99.90;;;;;;5009373;28;20610;-64
2021/04/30 07:54:52;;;;;;;24.20;16.57;;;8.40;99.90;;;;;;5010677;28;20183;-65
2021/04/30 07:57:18;;;;;;;22.77;18.00;;;8.50;99.90;;;;;;5011135;28;20180;-64
2021/04/30 07:59:44;;;;;;;22.07;17.23;;;8.50;99.90;;;;;;4998035;28;20212;-65
2021/04/30 08:02:10;;;;;;;24.03;16.43;;;8.60;99.90;;;;;;5011526;28;20176;-64
2021/04/30 08:04:36;;;;;;;20.87;16.63;;;8.60;99.90;;;;;;4995692;28;20646;-65
2021/04/30 08:07:01;;;;;;;25.37;17.20;;;8.60;99.90;;;;;;4997626;28;20204;-65
2021/04/30 08:09:27;;;;;;;23.87;18.10;;;8.50;99.90;;;;;;4990853;28;20278;-65
2021/04/30 08:11:53;;;;;;;25.73;17.23;;;8.40;99.90;;;;;;5003340;28;20804;-65
2021/04/30 08:14:18;;;;;;;24.07;17.27;;;8.50;99.90;;;;;;5011667;28;20164;-65
2021/04/30 08:16:44;;;;;;;31.00;17.87;;;8.60;99.90;;;;;;5001322;28;20181;-66
2021/04/30 08:19:10;;;;;;;25.33;16.53;;;8.70;99.90;;;;;;4991873;28;20203;-64
2021/04/30 08:21:36;;;;;;;24.53;17.43;;;8.80;99.90;;;;;;4999974;28;20184;-66
2021/04/30 08:24:02;;;;;;;21.43;17.47;;;8.80;99.90;;;;;;5009690;28;20187;-64
2021/04/30 08:26:28;;;;;;;35.13;17.90;;;8.90;99.90;;;;;;4998521;28;20271;-62
2021/04/30 08:28:54;;;;;;;25.20;17.40;;;8.90;99.90;;;;;;5010873;28;20204;-62
2021/04/30 08:31:22;;;;;;;26.00;17.27;;;9.00;99.90;;;;;;5005240;28;20191;-64
2021/04/30 08:33:49;;;;;;;20.17;16.80;;;9.10;99.90;;;;;;4991616;28;20169;-64
2021/04/30 08:36:15;;;;;;;26.33;17.33;;;9.10;99.90;;;;;;5001406;28;20180;-64
2021/04/30 08:38:40;;;;;;;22.73;17.90;;;9.10;99.90;;;;;;5014882;28;20219;-64
2021/04/30 08:41:06;;;;;;;28.27;17.87;;;9.10;99.90;;;;;;5012284;28;20529;-63
2021/04/30 08:43:32;;;;;;;26.47;18.27;;;9.20;99.90;;;;;;5014928;28;20183;-65
2021/04/30 08:45:58;;;;;;;25.73;17.97;;;9.10;99.90;;;;;;5008288;28;20248;-65
2021/04/30 08:48:25;;;;;;;22.00;17.00;;;9.10;99.90;;;;;;4995270;28;20271;-64
2021/04/30 08:50:54;;;;;;;24.40;16.73;;;9.10;99.90;;;;;;4998625;28;20249;-64
2021/04/30 08:53:19;;;;;;;24.70;16.30;;;9.10;99.90;;;;;;5014658;28;20585;-64
2021/04/30 08:55:48;;;;;;;24.63;15.83;;;9.20;99.90;;;;;;5011447;28;20173;-62
2021/04/30 08:58:14;;;;;;;25.73;17.40;;;9.20;99.90;;;;;;4994751;28;20219;-63
2021/04/30 09:00:40;;;;;;;24.63;16.33;;;9.20;99.90;;;;;;4995709;28;20181;-60
2021/04/30 09:03:08;;;;;;;30.47;16.00;;;9.20;99.90;;;;;;5014210;28;20183;-64
2021/04/30 09:05:34;;;;;;;25.73;17.33;;;9.20;99.90;;;;;;5013913;28;20547;-63
2021/04/30 09:08:01;;;;;;;27.20;17.27;;;9.40;99.90;;;;;;5014047;28;20200;-64
2021/04/30 09:10:36;;;;;;;24.57;16.77;;;9.50;99.90;;;;;;5013617;28;20207;-63
2021/04/30 09:13:14;;;;;;;24.40;16.27;;;9.60;99.90;;;;;;5007965;28;20164;-62
2021/04/30 09:15:41;;;;;;;20.67;16.53;;;9.60;99.90;;;;;;4992178;28;20176;-64
2021/04/30 09:18:19;;;;;;;22.10;15.90;;;9.60;99.90;;;;;;5014009;28;20198;-62
2021/04/30 09:20:47;;;;;;;25.73;15.33;;;9.70;99.90;;;;;;5012830;28;20173;-63
2021/04/30 09:23:34;;;;;;;26.27;16.33;;;9.70;99.90;;;;;;5013405;28;20255;-61
2021/04/30 09:26:20;;;;;;;23.13;15.40;;;9.70;99.90;;;;;;5011683;28;20230;-64
2021/04/30 09:29:05;;;;;;;25.73;15.70;;;9.80;99.90;;;;;;4994382;28;20200;-64
2021/04/30 09:31:39;;;;;;;26.97;16.67;;;9.80;99.90;;;;;;4998998;28;20176;-64
2021/04/30 09:34:14;;;;;;;27.03;15.70;;;10.00;99.90;;;;;;5013794;28;20543;-64
2021/04/30 09:37:00;;;;;;;18.13;14.83;;;10.40;99.90;;;;;;5007648;28;20258;-66
2021/04/30 09:39:26;;;;;;;21.93;15.87;;;10.70;99.90;;;;;;4994181;28;20216;-63
2021/04/30 09:42:13;;;;;;;16.90;13.13;;;10.90;99.90;;;;;;5000623;28;20179;-64
2021/04/30 09:44:42;;;;;;;27.10;15.10;;;10.90;99.90;;;;;;4999508;28;20177;-66
2021/04/30 09:47:22;;;;;;;23.60;15.33;;;10.90;99.90;;;;;;5002612;28;20548;-63
2021/04/30 09:49:58;;;;;;;23.20;15.70;;;11.00;99.90;;;;;;5013192;28;20208;-62
2021/04/30 09:52:25;;;;;;;23.93;15.60;;;11.00;99.90;;;;;;5003420;28;20168;-64
2021/04/30 09:54:52;;;;;;;25.33;15.30;;;11.10;99.90;;;;;;4994235;28;20563;-65
2021/04/30 09:57:23;;;;;;;24.53;14.87;;;11.20;99.90;;;;;;5002921;28;20680;-64
2021/04/30 09:59:53;;;;;;;23.30;14.50;;;11.40;99.90;;;;;;5005320;28;20200;-64
2021/04/30 10:02:20;;;;;;;21.57;13.60;;;11.30;99.90;;;;;;5002448;28;20172;-65
2021/04/30 10:04:48;;;;;;;21.30;14.30;;;11.40;99.90;;;;;;5013431;28;20173;-65
2021/04/30 10:07:24;;;;;;;17.17;13.93;;;11.10;99.90;;;;;;5005684;28;20551;-65
2021/04/30 10:10:10;;;;;;;18.30;13.80;;;11.00;99.90;;;;;;4993327;28;20604;-65
2021/04/30 10:12:38;;;;;;;20.67;15.00;;;10.80;99.90;;;;;;5003650;28;20184;-66
2021/04/30 10:15:05;;;;;;;25.10;15.00;;;11.10;99.90;;;;;;5013157;28;20255;-65
2021/04/30 10:17:31;;;;;;;20.90;14.17;;;11.30;99.90;;;;;;5004240;28;20660;-65
2021/04/30 10:19:56;;;;;;;21.53;13.77;;;11.50;99.90;;;;;;5005682;28;20204;-65
2021/04/30 10:22:26;;;;;;;18.13;13.77;;;11.60;99.90;;;;;;5009325;28;20554;-64
2021/04/30 10:24:55;;;;;;;26.37;12.90;;;11.70;99.90;;;;;;4993496;28;20173;-65
2021/04/30 10:27:32;;;;;;;24.43;12.97;;;12.00;99.90;;;;;;4999556;28;20253;-64
2021/04/30 10:30:30;;;;;;;21.33;13.70;;;12.40;99.90;;;;;;5012521;28;20208;-64
2021/04/30 10:33:20;;;;;;;24.47;13.17;;;13.20;99.90;;;;;;5009443;28;20203;-65
2021/04/30 10:35:49;;;;;;;19.10;12.73;;;14.20;99.90;;;;;;5012886;28;20171;-65
2021/04/30 10:38:28;;;;;;;20.97;12.27;;;15.30;99.90;;;;;;4999980;28;20208;-66
2021/04/30 10:41:05;;;;;;;22.57;12.07;;;16.20;99.90;;;;;;4992821;28;20271;-63
2021/04/30 10:43:32;;;;;;;21.37;12.23;;;16.60;99.90;;;;;;5007079;28;20198;-65
2021/04/30 10:46:12;;;;;;;19.60;13.00;;;17.10;99.90;;;;;;5012631;28;20521;-66
2021/04/30 10:49:04;;;;;;;19.50;13.43;;;17.30;99.90;;;;;;4998304;28;20284;-66
2021/04/30 10:51:31;;;;;;;21.10;15.77;;;17.10;99.90;;;;;;4992759;28;20192;-66
2021/04/30 10:54:23;;;;;;;21.83;14.63;;;16.30;99.90;;;;;;5008598;28;20246;-65
2021/04/30 10:57:00;;;;;;;24.53;14.60;;;16.10;99.90;;;;;;5009735;28;20199;-66
2021/04/30 10:59:46;;;;;;;19.60;13.77;;;15.80;99.90;;;;;;4992330;28;20212;-65
2021/04/30 11:02:36;;;;;;;25.10;14.93;;;15.30;99.90;;;;;;4992693;28;20214;-66
2021/04/30 11:05:09;;;;;;;17.33;14.47;;;14.90;99.90;;;;;;5001581;28;20180;-65
2021/04/30 11:07:51;;;;;;;24.90;14.57;;;14.90;99.90;;;;;;4995325;28;20172;-65
2021/04/30 11:10:23;;;;;;;21.20;15.93;;;14.70;99.90;;;;;;5011846;28;20235;-65
2021/04/30 11:13:14;;;;;;;24.00;14.30;;;14.60;99.90;;;;;;5008317;28;20203;-65
2021/04/30 11:15:45;;;;;;;26.40;15.47;;;14.50;99.90;;;;;;4995016;28;20204;-65
2021/04/30 11:18:25;;;;;;;23.00;15.40;;;14.50;99.90;;;;;;5012162;28;20196;-65
2021/04/30 11:21:03;;;;;;;29.50;24.10;;;14.30;99.90;;;;;;5007960;28;20192;-64
2021/04/30 11:23:36;;;;;;;22.60;15.40;;;13.90;99.90;;;;;;5001423;28;20180;-66
2021/04/30 11:26:11;;;;;;;24.70;16.60;;;13.80;99.90;;;;;;5007311;28;20584;-65
2021/04/30 11:28:42;;;;;;;26.07;16.37;;;13.90;99.90;;;;;;4992460;28;20189;-66
2021/04/30 11:31:12;;;;;;;23.10;15.87;;;13.60;99.90;;;;;;4996318;28;20191;-65
2021/04/30 11:33:42;;;;;;;24.20;21.47;;;13.40;99.90;;;;;;5011858;28;20173;-66
2021/04/30 11:36:11;;;;;;;26.13;17.50;;;13.20;99.90;;;;;;5006680;28;20188;-65
2021/04/30 11:38:43;;;;;;;23.80;16.33;;;13.30;99.90;;;;;;5047711;22;20944;-64
2021/04/30 11:41:10;;;;;;;24.43;16.13;;;13.40;99.90;;;;;;5030969;28;20183;-64
2021/04/30 11:43:37;;;;;;;23.50;17.33;;;13.60;99.90;;;;;;5031473;28;20640;-64
2021/04/30 11:46:03;;;;;;;23.70;15.63;;;13.90;99.90;;;;;;5031139;28;20577;-64
2021/04/30 11:48:30;;;;;;;25.77;15.60;;;14.00;99.90;;;;;;5031309;28;20214;-64
2021/04/30 11:50:59;;;;;;;26.83;15.67;;;14.00;99.90;;;;;;5030736;28;20195;-64
2021/04/30 11:53:25;;;;;;;23.77;15.83;;;14.10;99.90;;;;;;4991971;28;20164;-64
2021/04/30 11:55:52;;;;;;;21.90;15.23;;;14.20;99.90;;;;;;4992090;28;20551;-64
2021/04/30 11:58:17;;;;;;;23.17;15.43;;;14.10;99.90;;;;;;5029625;28;20706;-64
2021/04/30 12:00:49;;;;;;;23.87;15.63;;;14.00;99.90;;;;;;5031160;28;20175;-64
2021/04/30 12:03:14;;;;;;;24.20;16.63;;;14.00;99.90;;;;;;5027851;28;20171;-64
2021/04/30 12:05:40;;;;;;;21.80;15.83;;;14.10;99.90;;;;;;5031335;28;20175;-64
2021/04/30 12:08:05;;;;;;;26.13;15.67;;;14.30;99.90;;;;;;5014331;28;20260;-64
2021/04/30 12:10:33;;;;;;;28.10;16.37;;;14.50;99.90;;;;;;4979935;28;20213;-64
2021/04/30 12:12:59;;;;;;;24.93;15.53;;;14.70;99.90;;;;;;5024307;28;20176;-64
2021/04/30 12:15:40;;;;;;;24.47;15.03;;;15.30;99.90;;;;;;5035088;28;20168;-64
2021/04/30 12:18:06;;;;;;;22.63;15.50;;;15.80;99.90;;;;;;5020169;28;20183;-65
2021/04/30 12:20:34;;;;;;;18.03;14.63;;;16.40;99.90;;;;;;5015521;28;20191;-64
2021/04/30 12:23:11;;;;;;;22.77;15.70;;;16.50;99.90;;;;;;5028540;28;20706;-65
2021/04/30 12:25:47;;;;;;;24.20;16.23;;;16.90;99.90;;;;;;5016420;28;20194;-65
2021/04/30 12:28:21;;;;;;;23.77;15.60;;;17.20;99.90;;;;;;5029137;28;20629;-65
2021/04/30 12:31:13;;;;;;;18.93;15.17;;;17.60;99.90;;;;;;5034553;28;20230;-65
2021/04/30 12:33:42;;;;;;;19.83;15.10;;;17.60;99.90;;;;;;5013212;28;20263;-65
2021/04/30 12:36:47;;;;;;;22.93;15.67;;;17.30;99.90;;;;;;5014942;28;20222;-64
2021/04/30 12:39:16;;;;;;;22.90;15.43;;;17.70;99.90;;;;;;4916029;29;20223;-64
2021/04/30 12:41:43;;;;;;;18.80;15.17;;;18.60;99.90;;;;;;4980393;28;20600;-64